aviador You're here:

EPGD Decoded Metar

GDANSK in POLAND
Report Time2018-05-21 16:30:00
UTC Time2018-05-21 17:03:45
Flight Rules vfr VFR
Wind060° at 12 kt
W.Decomp.*RWY 11: 6.9 kt HW 9.8 kt LCW
W.Rank060° ranks 13
Current wind is above 060° avg. (6.8)
Visibility9999 m
Phenomena:N/A
Clouds:N/A
Expected CloudBase > 3,600 ft AGL from Temp-Dew spread
CeilingNone
Temp16°C (ISA +2)
Dew Point07°C (55% RH)
AAT11.0°C
QNH1022 hPa
Density Alt512 ft
Elevation453 ft
Report Wrong Elevation
Raw Report
EPGD 211630Z 06012KT CAVOK 16/07 Q1022=

Extra information for EPGD:More info

Metar Taf Metar & Taf Last 4 Metars F.Rules Stats Wind Profile Meteogram Temp Stats Airport Information Weather charts Add Link Nearby VenuesMetar ALERT Operation Metar Decoded Social comments